Time;durP1;ratioP1;P1;durP2;ratioP2;P2;SDS_P1;SDS_P2;PMS_P1;PMS_P2;Temp;Humidity;BMP_temperature;BMP_pressure;BME280_temperature;BME280_humidity;BME280_pressure;Samples;Min_cycle;Max_cycle;Signal;HPM_P1;HPM_P2
2023/11/24 00:00:14;;;;;;;19.15;0.75;;;8.10;99.90;;;;;;4428277;32;20077;-60
2023/11/24 00:02:39;;;;;;;4.37;0.85;;;8.00;99.90;;;;;;4428497;32;20073;-60
2023/11/24 00:05:07;;;;;;;0.68;0.68;;;7.90;99.90;;;;;;4429437;32;20065;-60
2023/11/24 00:07:34;;;;;;;0.68;0.68;;;7.90;99.90;;;;;;4427742;32;20069;-60
2023/11/24 00:10:00;;;;;;;0.55;0.55;;;7.80;99.90;;;;;;4430236;32;20145;-60
2023/11/24 00:12:26;;;;;;;0.40;0.40;;;7.70;99.90;;;;;;4412367;32;20089;-60
2023/11/24 00:14:51;;;;;;;1.33;0.93;;;7.60;99.90;;;;;;4414476;32;20458;-60
2023/11/24 00:17:18;;;;;;;0.45;0.45;;;7.60;99.90;;;;;;4428155;32;20196;-60
2023/11/24 00:19:43;;;;;;;0.20;0.20;;;7.60;99.90;;;;;;4427268;32;20077;-60
2023/11/24 00:22:09;;;;;;;2.40;0.88;;;7.60;99.90;;;;;;4427898;32;20069;-59
2023/11/24 00:24:35;;;;;;;0.30;0.30;;;7.70;99.90;;;;;;4430356;32;20077;-59
2023/11/24 00:27:00;;;;;;;0.37;0.37;;;7.70;99.90;;;;;;4427277;32;20079;-60
2023/11/24 00:29:26;;;;;;;1.48;0.82;;;7.60;99.90;;;;;;4427192;32;20077;-61
2023/11/24 00:31:51;;;;;;;3.37;1.08;;;7.60;99.90;;;;;;4425030;32;20089;-62
2023/11/24 00:34:17;;;;;;;0.30;0.30;;;7.50;99.90;;;;;;4425585;32;20119;-61
2023/11/24 00:36:42;;;;;;;9.55;0.88;;;7.50;99.90;;;;;;4427091;32;20123;-60
2023/11/24 00:39:08;;;;;;;0.20;0.20;;;7.50;99.90;;;;;;4427465;32;20070;-60
2023/11/24 00:41:33;;;;;;;0.20;0.20;;;7.60;99.90;;;;;;4423305;32;20066;-60
2023/11/24 00:44:01;;;;;;;0.85;0.85;;;7.60;99.90;;;;;;4430146;32;20584;-60
2023/11/24 00:46:28;;;;;;;2.30;1.25;;;7.50;99.90;;;;;;4429981;32;20528;-60
2023/11/24 00:48:53;;;;;;;0.47;0.47;;;7.60;99.90;;;;;;4427412;32;20085;-61
2023/11/24 00:51:19;;;;;;;0.20;0.20;;;7.60;99.90;;;;;;4429467;32;20089;-60
2023/11/24 00:53:44;;;;;;;3.80;0.62;;;7.50;99.90;;;;;;4431275;32;20154;-60
2023/11/24 00:56:10;;;;;;;2.15;0.85;;;7.50;99.90;;;;;;4400450;32;20069;-61
2023/11/24 00:58:35;;;;;;;0.55;0.55;;;7.50;99.90;;;;;;4431653;32;20081;-61
2023/11/24 01:01:03;;;;;;;0.30;0.30;;;7.40;99.90;;;;;;4429333;32;20090;-62
2023/11/24 01:03:29;;;;;;;0.52;0.52;;;7.40;99.90;;;;;;4427607;32;20064;-61
2023/11/24 01:05:55;;;;;;;1.90;1.37;;;7.40;99.90;;;;;;4431193;32;20136;-61
2023/11/24 01:08:21;;;;;;;1.00;0.70;;;7.40;99.90;;;;;;4414737;32;20062;-59
2023/11/24 01:10:46;;;;;;;0.30;0.30;;;7.40;99.90;;;;;;4425888;32;20483;-61
2023/11/24 01:13:13;;;;;;;0.30;0.30;;;7.30;99.90;;;;;;4413289;32;20090;-61
2023/11/24 01:15:38;;;;;;;13.62;1.23;;;7.30;99.90;;;;;;4413370;32;20144;-62
2023/11/24 01:18:06;;;;;;;0.30;0.30;;;7.30;99.90;;;;;;4427110;32;20606;-62
2023/11/24 01:20:33;;;;;;;0.85;0.80;;;7.30;99.90;;;;;;4404068;32;20101;-61
2023/11/24 01:22:59;;;;;;;0.20;0.20;;;7.40;99.90;;;;;;4429657;32;20097;-61
2023/11/24 01:25:24;;;;;;;0.55;0.55;;;7.40;99.90;;;;;;4431279;32;20072;-62
2023/11/24 01:27:50;;;;;;;5.05;1.40;;;7.30;99.90;;;;;;4432403;32;20450;-60
2023/11/24 01:30:15;;;;;;;2.85;0.77;;;7.30;99.90;;;;;;4431131;32;20084;-60
2023/11/24 01:32:41;;;;;;;0.75;0.62;;;7.30;99.90;;;;;;4431383;32;20074;-61
2023/11/24 01:35:07;;;;;;;0.40;0.40;;;7.40;99.90;;;;;;4429829;32;20076;-62
2023/11/24 01:37:33;;;;;;;0.60;0.60;;;7.40;99.90;;;;;;4429490;32;20552;-61
2023/11/24 01:39:58;;;;;;;0.50;0.50;;;7.40;99.90;;;;;;4429240;32;20073;-60
2023/11/24 01:42:24;;;;;;;0.20;0.20;;;7.40;99.90;;;;;;4426630;32;20077;-62
2023/11/24 01:44:49;;;;;;;0.30;0.30;;;7.40;99.90;;;;;;4430071;32;20077;-61
2023/11/24 01:47:15;;;;;;;0.30;0.30;;;7.40;99.90;;;;;;4433544;32;20571;-61
2023/11/24 01:49:42;;;;;;;0.73;0.60;;;7.30;99.90;;;;;;4428271;32;20085;-62
2023/11/24 01:52:07;;;;;;;0.30;0.30;;;7.30;99.90;;;;;;4417900;32;20077;-62
2023/11/24 01:54:36;;;;;;;0.22;0.22;;;7.30;99.90;;;;;;4429454;32;20105;-61
2023/11/24 01:57:07;;;;;;;0.20;0.20;;;7.30;99.90;;;;;;4430694;32;20069;-60
2023/11/24 01:59:33;;;;;;;1.48;1.08;;;7.30;99.90;;;;;;4416740;32;20080;-61
2023/11/24 02:01:59;;;;;;;0.30;0.30;;;7.30;99.90;;;;;;4414284;32;20430;-62
2023/11/24 02:04:25;;;;;;;0.30;0.30;;;7.30;99.90;;;;;;4427976;32;20777;-60
2023/11/24 02:06:51;;;;;;;0.20;0.20;;;7.00;99.90;;;;;;4427216;32;20077;-59
2023/11/24 02:09:17;;;;;;;0.40;0.30;;;6.60;99.90;;;;;;4442400;32;20536;-59
2023/11/24 02:11:43;;;;;;;0.30;0.30;;;6.20;99.90;;;;;;4416552;32;20073;-57
2023/11/24 02:14:09;;;;;;;0.37;0.37;;;5.80;99.90;;;;;;4431655;32;20065;-60
2023/11/24 02:16:34;;;;;;;0.30;0.30;;;5.60;99.90;;;;;;4430177;32;20073;-60
2023/11/24 02:19:00;;;;;;;0.30;0.30;;;5.40;99.90;;;;;;4435798;32;20069;-57
2023/11/24 02:21:25;;;;;;;0.28;0.28;;;5.30;99.90;;;;;;4428958;32;20070;-57
2023/11/24 02:23:51;;;;;;;0.30;0.30;;;5.30;99.90;;;;;;4416408;32;20419;-59
2023/11/24 02:26:16;;;;;;;0.30;0.30;;;5.20;99.90;;;;;;4417317;32;20065;-59
2023/11/24 02:28:42;;;;;;;1.30;0.82;;;5.10;99.90;;;;;;4429649;32;20073;-59
2023/11/24 02:31:08;;;;;;;0.20;0.20;;;5.00;99.90;;;;;;4428408;32;20481;-59
2023/11/24 02:33:34;;;;;;;0.30;0.30;;;5.00;99.90;;;;;;4413188;32;20109;-57
2023/11/24 02:36:05;;;;;;;0.20;0.20;;;5.00;99.90;;;;;;4431436;32;20135;-61
2023/11/24 02:38:32;;;;;;;0.60;0.60;;;5.00;99.90;;;;;;4428234;32;20081;-61
2023/11/24 02:40:57;;;;;;;3.00;1.00;;;5.10;99.90;;;;;;4428933;32;20158;-60
2023/11/24 02:43:23;;;;;;;0.20;0.20;;;5.20;99.90;;;;;;4431541;32;20171;-62
2023/11/24 02:45:48;;;;;;;0.43;0.43;;;5.10;99.90;;;;;;4430269;32;20088;-60
2023/11/24 02:48:14;;;;;;;2.35;0.82;;;5.10;99.90;;;;;;4425483;32;20113;-59
2023/11/24 02:50:39;;;;;;;0.40;0.40;;;5.00;99.90;;;;;;4428474;32;20093;-59
2023/11/24 02:53:05;;;;;;;0.20;0.20;;;5.10;99.90;;;;;;4430670;32;20896;-59
2023/11/24 02:55:30;;;;;;;0.30;0.30;;;4.90;99.90;;;;;;4428126;32;20097;-58
2023/11/24 02:57:56;;;;;;;0.40;0.40;;;4.90;99.90;;;;;;4429119;32;20065;-58
2023/11/24 03:00:21;;;;;;;0.28;0.28;;;4.90;99.90;;;;;;4430983;32;20070;-59
2023/11/24 03:02:46;;;;;;;0.30;0.30;;;4.90;99.90;;;;;;4429177;32;20080;-60
2023/11/24 03:05:13;;;;;;;0.30;0.30;;;4.90;99.90;;;;;;4427810;32;20115;-60
2023/11/24 03:07:39;;;;;;;0.40;0.40;;;4.90;99.90;;;;;;4428322;32;20081;-59
2023/11/24 03:10:05;;;;;;;8.85;1.20;;;4.90;99.90;;;;;;4429940;32;20190;-59
2023/11/24 03:12:31;;;;;;;5.68;1.75;;;;;;;;;;4430835;32;20119;-58
2023/11/24 03:14:58;;;;;;;1.20;0.77;;;;;;;;;;4432420;32;20270;-58
2023/11/24 03:17:24;;;;;;;0.30;0.30;;;;;;;;;;4425970;32;20299;-59
2023/11/24 03:19:49;;;;;;;0.40;0.40;;;;;;;;;;4429115;32;20308;-59
2023/11/24 03:22:15;;;;;;;0.68;0.60;;;;;;;;;;4431548;32;20115;-57
2023/11/24 03:24:42;;;;;;;0.35;0.35;;;;;;;;;;4429077;32;20069;-60
2023/11/24 03:27:07;;;;;;;0.20;0.20;;;;;;;;;;4429158;32;20069;-61
2023/11/24 03:29:36;;;;;;;0.40;0.40;;;;;;;;;;4425508;32;20076;-61
2023/11/24 03:32:02;;;;;;;0.40;0.40;;;;;;;;;;4426344;32;20094;-61
2023/11/24 03:34:28;;;;;;;0.20;0.20;;;;;;;;;;4413811;32;20057;-60
2023/11/24 03:36:54;;;;;;;0.30;0.30;;;;;;;;;;4429344;32;20540;-59
2023/11/24 03:39:21;;;;;;;2.95;1.05;;;;;;;;;;4416678;32;20082;-59
2023/11/24 03:41:47;;;;;;;14.70;2.17;;;;;;;;;;4430307;32;20510;-59
2023/11/24 03:44:13;;;;;;;1.00;0.75;;;;;;;;;;4427204;32;20088;-59
2023/11/24 03:46:39;;;;;;;1.08;0.90;;;;;;;;;;4427302;32;20143;-60
2023/11/24 03:49:06;;;;;;;1.42;0.85;;;;;;;;;;4428131;32;20528;-58
2023/11/24 03:51:32;;;;;;;0.60;0.60;;;;;;;;;;4414398;32;20089;-60
2023/11/24 03:53:58;;;;;;;0.30;0.30;;;;;;;;;;4431159;32;20101;-59
2023/11/24 03:56:24;;;;;;;0.47;0.47;;;;;;;;;;4428170;32;20411;-60
2023/11/24 03:58:50;;;;;;;0.30;0.30;;;;;;;;;;4428587;32;20080;-58
2023/11/24 04:01:17;;;;;;;0.30;0.30;;;;;;;;;;4427922;32;20089;-59
2023/11/24 04:03:44;;;;;;;0.25;0.25;;;;;;;;;;4430676;32;20064;-58
2023/11/24 04:06:10;;;;;;;4.97;0.68;;;;;;;;;;4431536;32;20061;-59
2023/11/24 04:08:36;;;;;;;1.33;0.62;;;;;;;;;;4432712;32;20108;-57
2023/11/24 04:11:02;;;;;;;10.52;1.55;;;;;;;;;;4441230;32;20094;-59
2023/11/24 04:13:28;;;;;;;0.60;0.60;;;;;;;;;;4428008;32;20178;-60
2023/11/24 04:15:54;;;;;;;0.40;0.40;;;;;;;;;;4419745;32;20176;-58
2023/11/24 04:18:19;;;;;;;0.20;0.20;;;6.20;99.90;;;;;;4427306;32;20132;-58
2023/11/24 04:20:45;;;;;;;0.65;0.62;;;5.80;99.90;;;;;;4428617;32;20085;-59
2023/11/24 04:23:13;;;;;;;0.73;0.73;;;5.90;99.90;;;;;;4430104;32;20116;-57
2023/11/24 04:25:40;;;;;;;0.40;0.40;;;5.90;99.90;;;;;;4428292;32;20077;-59
2023/11/24 04:28:06;;;;;;;0.35;0.35;;;5.90;99.90;;;;;;4428920;32;20073;-58
2023/11/24 04:30:33;;;;;;;0.30;0.30;;;5.90;99.90;;;;;;4413244;32;20532;-58
2023/11/24 04:32:58;;;;;;;1.50;1.17;;;5.90;99.90;;;;;;4429933;32;20081;-59
2023/11/24 04:35:24;;;;;;;0.30;0.30;;;5.80;99.90;;;;;;4427165;32;20424;-58
2023/11/24 04:37:49;;;;;;;0.20;0.20;;;5.80;99.90;;;;;;4410977;32;20124;-60
2023/11/24 04:40:14;;;;;;;0.28;0.28;;;5.80;99.90;;;;;;4431498;32;20078;-59
2023/11/24 04:42:40;;;;;;;0.20;0.20;;;5.80;99.90;;;;;;4426174;32;20070;-59
2023/11/24 04:45:06;;;;;;;0.30;0.30;;;5.80;99.90;;;;;;4429651;32;20156;-58
2023/11/24 04:47:32;;;;;;;1.85;0.93;;;5.80;99.90;;;;;;4429764;32;20054;-57
2023/11/24 04:49:57;;;;;;;0.30;0.30;;;5.80;99.90;;;;;;4428847;32;20088;-58
2023/11/24 04:52:23;;;;;;;0.28;0.28;;;5.80;99.90;;;;;;4430359;32;20065;-59
2023/11/24 04:54:50;;;;;;;0.20;0.20;;;5.80;99.90;;;;;;4426825;32;20580;-59
2023/11/24 04:57:15;;;;;;;0.20;0.20;;;5.70;99.90;;;;;;4427300;32;20065;-59
2023/11/24 04:59:41;;;;;;;0.30;0.30;;;5.70;99.90;;;;;;4428694;32;20133;-59
2023/11/24 05:02:06;;;;;;;4.95;0.55;;;5.70;99.90;;;;;;4414446;32;20431;-58
2023/11/24 05:04:35;;;;;;;0.30;0.30;;;5.70;99.90;;;;;;4430332;32;20073;-60
2023/11/24 05:07:00;;;;;;;0.28;0.28;;;5.60;99.90;;;;;;4429049;32;20074;-60
2023/11/24 05:09:26;;;;;;;0.40;0.40;;;5.60;99.90;;;;;;4428620;32;20080;-61
2023/11/24 05:11:51;;;;;;;0.30;0.30;;;5.60;99.90;;;;;;4436078;32;20250;-61
2023/11/24 05:14:17;;;;;;;0.30;0.30;;;5.60;99.90;;;;;;4426665;32;20128;-60
2023/11/24 05:16:42;;;;;;;0.65;0.50;;;5.50;99.90;;;;;;4429815;32;20463;-60
2023/11/24 05:19:08;;;;;;;0.50;0.40;;;5.50;99.90;;;;;;4428340;32;20112;-61
2023/11/24 05:21:34;;;;;;;0.40;0.40;;;5.50;99.90;;;;;;4424111;32;20073;-61
2023/11/24 05:23:59;;;;;;;0.30;0.30;;;5.40;99.90;;;;;;4431998;32;20313;-59
2023/11/24 05:26:25;;;;;;;0.30;0.30;;;5.40;99.90;;;;;;4431043;32;20117;-61
2023/11/24 05:28:50;;;;;;;0.20;0.20;;;5.40;99.90;;;;;;4428556;32;20085;-58
2023/11/24 05:31:16;;;;;;;0.40;0.40;;;5.40;99.90;;;;;;4429947;32;20069;-60
2023/11/24 05:33:41;;;;;;;1.45;0.75;;;5.40;99.90;;;;;;4428270;32;20165;-61
2023/11/24 05:36:09;;;;;;;0.30;0.30;;;5.40;99.90;;;;;;4428510;32;20069;-60
2023/11/24 05:38:36;;;;;;;2.72;0.77;;;5.40;99.90;;;;;;4436091;32;20076;-61
2023/11/24 05:41:03;;;;;;;0.20;0.20;;;5.30;99.90;;;;;;4414098;32;20143;-61
2023/11/24 05:43:29;;;;;;;0.55;0.55;;;5.40;99.90;;;;;;4414313;32;20126;-60
2023/11/24 05:45:54;;;;;;;0.30;0.30;;;5.30;99.90;;;;;;4428423;32;20076;-58
2023/11/24 05:48:20;;;;;;;0.30;0.30;;;5.30;99.90;;;;;;4432634;32;20085;-60
2023/11/24 05:50:45;;;;;;;0.22;0.22;;;5.40;99.90;;;;;;4426020;32;20612;-61
2023/11/24 05:53:11;;;;;;;0.30;0.30;;;5.40;99.90;;;;;;4424944;32;20073;-59
2023/11/24 05:55:36;;;;;;;0.30;0.30;;;5.40;99.90;;;;;;4429623;32;20081;-60
2023/11/24 05:58:05;;;;;;;0.35;0.35;;;5.40;99.90;;;;;;4426507;32;20141;-60
2023/11/24 06:00:31;;;;;;;0.85;0.82;;;5.40;99.90;;;;;;4424423;32;20069;-59
2023/11/24 06:02:57;;;;;;;0.30;0.30;;;5.40;99.90;;;;;;4430597;32;20089;-60
2023/11/24 06:05:22;;;;;;;1.02;0.73;;;5.40;99.90;;;;;;4427425;32;20081;-60
2023/11/24 06:07:48;;;;;;;0.20;0.20;;;5.40;99.90;;;;;;4417805;32;20221;-60
2023/11/24 06:10:13;;;;;;;0.30;0.30;;;5.40;99.90;;;;;;4426959;32;20069;-60
2023/11/24 06:12:39;;;;;;;0.98;0.93;;;5.40;99.90;;;;;;4414468;32;20069;-60
2023/11/24 06:15:05;;;;;;;0.30;0.30;;;5.40;99.90;;;;;;4419846;32;20069;-60
2023/11/24 06:17:31;;;;;;;0.30;0.30;;;5.40;99.90;;;;;;4414237;32;20806;-59
2023/11/24 06:19:56;;;;;;;2.75;0.98;;;5.50;99.90;;;;;;4427798;32;20073;-60
2023/11/24 06:22:22;;;;;;;0.30;0.30;;;5.40;99.90;;;;;;4420360;32;20132;-60
2023/11/24 06:24:47;;;;;;;0.30;0.30;;;5.40;99.90;;;;;;4433418;32;20065;-60
2023/11/24 06:27:13;;;;;;;0.32;0.32;;;5.50;99.90;;;;;;4408411;32;20128;-59
2023/11/24 06:29:39;;;;;;;0.80;0.70;;;5.40;99.90;;;;;;4424832;32;20221;-60
2023/11/24 06:32:05;;;;;;;0.30;0.30;;;5.40;99.90;;;;;;4423261;32;20193;-59
2023/11/24 06:34:31;;;;;;;0.30;0.30;;;5.40;99.90;;;;;;4418795;32;20377;-60
2023/11/24 06:36:56;;;;;;;0.30;0.30;;;5.40;99.90;;;;;;4418517;32;20476;-60
2023/11/24 06:39:22;;;;;;;1.00;0.60;;;5.40;99.90;;;;;;4421878;32;20131;-60
2023/11/24 06:41:47;;;;;;;0.40;0.40;;;5.40;99.90;;;;;;4419407;32;21079;-60
2023/11/24 06:44:13;;;;;;;0.30;0.30;;;5.40;99.90;;;;;;4417510;32;20710;-59
2023/11/24 06:46:38;;;;;;;0.52;0.45;;;5.50;99.90;;;;;;4414156;32;20499;-62
2023/11/24 06:49:06;;;;;;;0.50;0.50;;;5.40;99.90;;;;;;4400527;32;20135;-60
2023/11/24 06:51:32;;;;;;;2.75;0.93;;;5.40;99.90;;;;;;4397957;32;20089;-59
2023/11/24 06:53:57;;;;;;;0.35;0.35;;;5.40;99.90;;;;;;4398327;32;20935;-60
2023/11/24 06:56:25;;;;;;;0.45;0.45;;;5.40;99.90;;;;;;4393432;32;20834;-60
2023/11/24 06:58:54;;;;;;;2.40;0.95;;;5.50;99.90;;;;;;4390629;32;20121;-62
2023/11/24 07:01:35;;;;;;;0.30;0.30;;;5.60;99.90;;;;;;4380585;32;20639;-62
2023/11/24 07:04:01;;;;;;;0.47;0.47;;;5.60;99.90;;;;;;4390139;32;20122;-62
2023/11/24 07:06:27;;;;;;;12.37;0.47;;;5.60;99.90;;;;;;4395430;32;20081;-62
2023/11/24 07:08:53;;;;;;;0.30;0.30;;;5.50;99.90;;;;;;4370814;32;20357;-61
2023/11/24 07:11:20;;;;;;;0.90;0.73;;;5.50;99.90;;;;;;4396023;32;20125;-61
2023/11/24 07:13:45;;;;;;;2.85;1.40;;;5.50;99.90;;;;;;4386394;32;20089;-62
2023/11/24 07:16:11;;;;;;;0.40;0.40;;;5.60;99.90;;;;;;4384283;32;21523;-62
2023/11/24 07:18:36;;;;;;;0.30;0.30;;;5.60;99.90;;;;;;4379728;32;20168;-61
2023/11/24 07:21:02;;;;;;;0.30;0.30;;;5.60;99.90;;;;;;4390939;32;20635;-62
2023/11/24 07:23:27;;;;;;;0.30;0.30;;;5.60;99.90;;;;;;4387460;32;20105;-61
2023/11/24 07:25:53;;;;;;;0.32;0.32;;;5.60;99.90;;;;;;4393062;32;20089;-60
2023/11/24 07:28:19;;;;;;;0.50;0.50;;;5.60;99.90;;;;;;4395961;32;20552;-61
2023/11/24 07:30:46;;;;;;;0.20;0.20;;;5.50;99.90;;;;;;4381668;32;20101;-60
2023/11/24 07:33:12;;;;;;;0.30;0.30;;;5.50;99.90;;;;;;4385414;32;20097;-61
2023/11/24 07:35:38;;;;;;;0.50;0.50;;;5.40;99.90;;;;;;4378602;32;20096;-60
2023/11/24 07:38:04;;;;;;;0.43;0.43;;;5.50;99.90;;;;;;4384175;32;20304;-61
2023/11/24 07:40:30;;;;;;;2.95;1.95;;;5.40;99.90;;;;;;4380788;32;20483;-62
2023/11/24 07:42:56;;;;;;;0.30;0.30;;;5.40;99.90;;;;;;4388122;32;20081;-62
2023/11/24 07:45:21;;;;;;;0.25;0.25;;;5.40;99.90;;;;;;4378461;32;20748;-59
2023/11/24 07:47:47;;;;;;;1.60;1.17;;;5.30;99.90;;;;;;4390768;32;20084;-63
2023/11/24 07:50:13;;;;;;;0.75;0.75;;;5.30;99.90;;;;;;4385137;32;20106;-62
2023/11/24 07:52:43;;;;;;;0.30;0.30;;;5.40;99.90;;;;;;4364570;32;20126;-61
2023/11/24 07:55:13;;;;;;;0.40;0.40;;;5.40;99.90;;;;;;4391782;32;20172;-61
2023/11/24 07:57:39;;;;;;;0.68;0.68;;;5.40;99.90;;;;;;4376718;32;20946;-61
2023/11/24 08:00:12;;;;;;;0.30;0.30;;;5.30;99.90;;;;;;4379178;32;20514;-61
2023/11/24 08:02:34;;;;;;;1.87;0.98;;;5.30;99.90;;;;;;4369934;32;21211;-61
2023/11/24 08:04:59;;;;;;;0.50;0.50;;;5.30;99.90;;;;;;4380598;32;20691;-61
2023/11/24 08:07:25;;;;;;;0.50;0.50;;;5.30;99.90;;;;;;4388015;32;20093;-60
2023/11/24 08:09:50;;;;;;;50.85;1.45;;;5.40;99.90;;;;;;4397025;32;20811;-62
2023/11/24 08:12:16;;;;;;;0.30;0.30;;;5.40;99.90;;;;;;4391793;32;20370;-60
2023/11/24 08:14:42;;;;;;;0.45;0.45;;;5.40;99.90;;;;;;4385493;32;20097;-60
2023/11/24 08:17:07;;;;;;;0.50;0.50;;;5.40;99.90;;;;;;4365528;32;20454;-61
2023/11/24 08:19:33;;;;;;;12.15;1.37;;;5.40;99.90;;;;;;4380624;32;20093;-58
2023/11/24 08:21:58;;;;;;;0.60;0.60;;;5.50;99.90;;;;;;4385436;32;20848;-62
2023/11/24 08:24:24;;;;;;;0.40;0.40;;;5.50;99.90;;;;;;4382977;32;20105;-62
2023/11/24 08:26:50;;;;;;;0.20;0.20;;;5.50;99.90;;;;;;4388456;32;20120;-61
2023/11/24 08:29:17;;;;;;;0.30;0.30;;;5.60;99.90;;;;;;4378885;32;20468;-60
2023/11/24 08:31:45;;;;;;;0.35;0.35;;;5.60;99.90;;;;;;4374790;32;20097;-61
2023/11/24 08:34:13;;;;;;;4.18;1.90;;;5.70;99.90;;;;;;4373288;32;21082;-61
2023/11/24 08:36:40;;;;;;;0.30;0.30;;;5.60;99.90;;;;;;4391648;32;20093;-62
2023/11/24 08:39:12;;;;;;;0.40;0.40;;;5.60;99.90;;;;;;4395293;32;20097;-60
2023/11/24 08:41:38;;;;;;;0.37;0.37;;;5.60;99.90;;;;;;4399758;32;20093;-57
2023/11/24 08:44:04;;;;;;;0.20;0.20;;;5.50;99.90;;;;;;4399788;32;20077;-59
2023/11/24 08:46:30;;;;;;;6.90;1.23;;;5.50;99.90;;;;;;4396478;32;20470;-61
2023/11/24 08:48:55;;;;;;;0.20;0.20;;;5.50;99.90;;;;;;4382957;32;20651;-59
2023/11/24 08:51:21;;;;;;;4.18;0.88;;;5.50;99.90;;;;;;4386676;32;20701;-60
2023/11/24 08:53:46;;;;;;;0.30;0.30;;;5.50;99.90;;;;;;4378346;32;20158;-59
2023/11/24 08:56:12;;;;;;;0.50;0.50;;;5.50;99.90;;;;;;4397963;32;20493;-60
2023/11/24 08:58:37;;;;;;;0.98;0.93;;;5.50;99.90;;;;;;4402221;32;20092;-60
2023/11/24 09:01:05;;;;;;;1.85;1.15;;;5.60;99.90;;;;;;4383299;32;20070;-57
2023/11/24 09:03:30;;;;;;;5.30;1.33;;;5.60;99.90;;;;;;4366654;32;20542;-56
2023/11/24 09:05:57;;;;;;;0.22;0.22;;;5.60;99.90;;;;;;4388738;32;20990;-59
2023/11/24 09:08:23;;;;;;;0.40;0.40;;;5.60;99.90;;;;;;4392078;32;20105;-59
2023/11/24 09:10:49;;;;;;;1.85;1.30;;;5.60;99.90;;;;;;4400602;32;20267;-57
2023/11/24 09:13:14;;;;;;;0.30;0.30;;;5.60;99.90;;;;;;4380558;32;20081;-58
2023/11/24 09:15:42;;;;;;;0.32;0.32;;;5.50;99.90;;;;;;4376986;32;20105;-61
2023/11/24 09:18:08;;;;;;;0.55;0.55;;;5.60;99.90;;;;;;4372809;32;20209;-61
2023/11/24 09:20:33;;;;;;;1.55;0.82;;;5.60;99.90;;;;;;4389640;32;20094;-60
2023/11/24 09:22:59;;;;;;;3.33;1.65;;;5.70;99.90;;;;;;4396855;32;20085;-60
2023/11/24 09:25:24;;;;;;;0.30;0.30;;;5.80;99.90;;;;;;4383206;32;20102;-60
2023/11/24 09:27:50;;;;;;;0.30;0.30;;;5.80;99.90;;;;;;4386024;32;20603;-61
2023/11/24 09:30:15;;;;;;;0.30;0.30;;;5.90;99.90;;;;;;4380125;32;20291;-59
2023/11/24 09:32:42;;;;;;;1.45;0.95;;;5.80;99.90;;;;;;4381136;32;21602;-59
2023/11/24 09:35:08;;;;;;;0.60;0.37;;;5.70;99.90;;;;;;4396995;32;20805;-61
2023/11/24 09:37:34;;;;;;;0.30;0.30;;;5.80;99.90;;;;;;4382283;32;20371;-60
2023/11/24 09:40:02;;;;;;;1.35;0.68;;;5.80;99.90;;;;;;4376828;32;20118;-60
2023/11/24 09:42:32;;;;;;;0.43;0.43;;;5.90;99.90;;;;;;4396654;32;20173;-62
2023/11/24 09:45:02;;;;;;;1.45;0.43;;;5.90;99.90;;;;;;4397975;32;20315;-59
2023/11/24 09:47:27;;;;;;;0.40;0.40;;;5.90;99.90;;;;;;4374020;32;21139;-59
2023/11/24 09:49:55;;;;;;;0.95;0.95;;;5.90;99.90;;;;;;4383833;32;20732;-59
2023/11/24 09:52:24;;;;;;;0.50;0.50;;;6.00;99.90;;;;;;4391884;32;20127;-61
2023/11/24 09:54:50;;;;;;;0.55;0.55;;;5.90;99.90;;;;;;4395314;32;21455;-60
2023/11/24 09:57:15;;;;;;;1.08;1.00;;;6.00;99.90;;;;;;4391514;32;20078;-60
2023/11/24 09:59:41;;;;;;;0.60;0.60;;;6.00;99.90;;;;;;4402408;32;20081;-61
2023/11/24 10:02:16;;;;;;;0.30;0.30;;;6.00;99.90;;;;;;4399244;32;20073;-60
2023/11/24 10:04:43;;;;;;;0.40;0.40;;;6.00;99.90;;;;;;4396630;32;20112;-60
2023/11/24 10:07:20;;;;;;;0.30;0.30;;;6.10;99.90;;;;;;4389956;32;20069;-60
2023/11/24 10:09:49;;;;;;;0.30;0.30;;;6.20;99.90;;;;;;4381775;32;20190;-60
2023/11/24 10:12:16;;;;;;;3.80;0.80;;;6.10;99.90;;;;;;4379656;32;20678;-60
2023/11/24 10:14:43;;;;;;;1.02;0.52;;;6.10;99.90;;;;;;4380230;32;21229;-60
2023/11/24 10:17:09;;;;;;;4.03;1.95;;;6.10;99.90;;;;;;4379625;32;21090;-60
2023/11/24 10:19:36;;;;;;;0.90;0.60;;;6.20;99.90;;;;;;4378919;32;20125;-59
2023/11/24 10:22:02;;;;;;;0.30;0.30;;;6.30;99.90;;;;;;4386947;32;20365;-60
2023/11/24 10:24:32;;;;;;;1.27;0.95;;;6.30;99.90;;;;;;4385520;32;20157;-60
2023/11/24 10:27:06;;;;;;;1.48;0.65;;;6.30;99.90;;;;;;4403774;32;20080;-60
2023/11/24 10:29:32;;;;;;;0.85;0.82;;;6.50;99.90;;;;;;4399942;32;20176;-59
2023/11/24 10:31:57;;;;;;;0.20;0.20;;;6.60;99.90;;;;;;4391418;32;20687;-60
2023/11/24 10:34:24;;;;;;;2.90;0.52;;;6.50;99.90;;;;;;4392544;32;20581;-61
2023/11/24 10:36:51;;;;;;;0.20;0.20;;;6.50;99.90;;;;;;4389039;32;20109;-61
2023/11/24 10:39:20;;;;;;;1.35;0.80;;;6.60;99.90;;;;;;4402718;32;20110;-61
2023/11/24 10:41:47;;;;;;;0.40;0.40;;;6.60;99.90;;;;;;4401495;32;20385;-61
2023/11/24 10:44:17;;;;;;;4.47;0.82;;;6.60;99.90;;;;;;4400091;32;20085;-60
2023/11/24 10:46:45;;;;;;;0.75;0.75;;;6.50;99.90;;;;;;4373142;32;20081;-60
2023/11/24 10:49:19;;;;;;;0.28;0.28;;;6.50;99.90;;;;;;4389621;32;20195;-62
2023/11/24 10:51:56;;;;;;;0.50;0.50;;;6.30;99.90;;;;;;4402241;32;20785;-60
2023/11/24 10:54:35;;;;;;;0.20;0.20;;;6.20;99.90;;;;;;4402852;32;20586;-62
2023/11/24 10:57:02;;;;;;;0.75;0.75;;;6.30;99.90;;;;;;4379766;32;20459;-60
2023/11/24 10:59:29;;;;;;;0.30;0.30;;;6.40;99.90;;;;;;4425216;32;20214;-60
2023/11/24 11:01:57;;;;;;;0.20;0.20;;;6.50;99.90;;;;;;4419360;32;20104;-62
2023/11/24 11:04:23;;;;;;;0.30;0.30;;;6.60;99.90;;;;;;4405396;32;20118;-60
2023/11/24 11:07:15;;;;;;;0.20;0.20;;;6.50;99.90;;;;;;4400815;32;21412;-60
2023/11/24 11:09:48;;;;;;;0.52;0.43;;;6.60;99.90;;;;;;4381300;32;20670;-62
2023/11/24 11:12:39;;;;;;;1.62;0.65;;;6.60;99.90;;;;;;4396463;32;20097;-62
2023/11/24 11:15:09;;;;;;;1.95;0.75;;;6.60;99.90;;;;;;4381312;32;20098;-60
2023/11/24 11:17:35;;;;;;;1.98;1.65;;;6.50;99.90;;;;;;4396208;32;22156;-57
2023/11/24 11:20:22;;;;;;;1.55;0.70;;;6.40;99.90;;;;;;4392776;32;20113;-60
2023/11/24 11:22:58;;;;;;;0.40;0.40;;;6.50;99.90;;;;;;4389352;32;20101;-60
2023/11/24 11:25:26;;;;;;;1.10;1.00;;;6.50;99.90;;;;;;4410886;32;20089;-59
2023/11/24 11:27:55;;;;;;;16.15;2.58;;;6.60;99.90;;;;;;4408658;32;20108;-61
2023/11/24 11:30:22;;;;;;;0.80;0.57;;;6.70;99.90;;;;;;4392778;32;20176;-61
2023/11/24 11:33:12;;;;;;;0.40;0.40;;;6.90;99.90;;;;;;4377942;32;20144;-62
2023/11/24 11:35:42;;;;;;;0.40;0.40;;;6.90;99.90;;;;;;4395885;32;20449;-60
2023/11/24 11:38:13;;;;;;;0.55;0.55;;;6.80;99.90;;;;;;4405254;32;20665;-58
2023/11/24 11:40:44;;;;;;;0.30;0.30;;;6.70;99.90;;;;;;4401706;32;20116;-61
2023/11/24 11:43:13;;;;;;;0.28;0.28;;;6.90;99.90;;;;;;4407899;32;20504;-62
2023/11/24 11:45:46;;;;;;;0.30;0.30;;;6.80;99.90;;;;;;4406013;32;20485;-58
2023/11/24 11:48:13;;;;;;;0.30;0.30;;;6.80;99.90;;;;;;4408549;32;20081;-60
2023/11/24 11:51:01;;;;;;;0.45;0.45;;;6.90;99.90;;;;;;4382720;32;127095;-59
2023/11/24 11:53:29;;;;;;;0.30;0.30;;;7.10;99.90;;;;;;4413854;32;20069;-60
2023/11/24 11:55:55;;;;;;;1.25;0.35;;;7.40;99.90;;;;;;4394600;32;20519;-59
2023/11/24 11:58:24;;;;;;;5.22;1.33;;;7.40;99.90;;;;;;4403289;32;20450;-59
2023/11/24 12:00:49;;;;;;;0.50;0.50;;;7.50;99.90;;;;;;4404824;32;20143;-62
2023/11/24 12:03:18;;;;;;;0.30;0.30;;;8.00;99.90;;;;;;4411479;32;20085;-63
2023/11/24 12:05:47;;;;;;;0.20;0.20;;;8.20;99.90;;;;;;4400324;32;20096;-61
2023/11/24 12:08:15;;;;;;;0.30;0.30;;;8.30;99.90;;;;;;4408117;32;20373;-61
2023/11/24 12:10:42;;;;;;;0.30;0.30;;;8.60;99.90;;;;;;4381816;32;20694;-60
2023/11/24 12:13:08;;;;;;;8.27;0.88;;;8.60;99.90;;;;;;4396086;32;20077;-58
2023/11/24 12:15:35;;;;;;;1.02;0.75;;;8.60;99.90;;;;;;4414217;32;20244;-58
2023/11/24 12:18:01;;;;;;;8.45;1.12;;;9.00;99.90;;;;;;4408879;32;20090;-59
2023/11/24 12:20:27;;;;;;;0.30;0.30;;;8.70;99.90;;;;;;4408209;32;20442;-58
2023/11/24 12:22:53;;;;;;;0.50;0.50;;;8.10;99.90;;;;;;4393627;32;20143;-59
2023/11/24 12:25:19;;;;;;;1.95;0.80;;;7.70;99.90;;;;;;4395548;32;20569;-58
2023/11/24 12:27:44;;;;;;;0.50;0.50;;;7.30;99.90;;;;;;4404995;32;20093;-61
2023/11/24 12:30:12;;;;;;;2.08;1.77;;;7.10;99.90;;;;;;4409408;32;20073;-59
2023/11/24 12:32:39;;;;;;;0.75;0.75;;;7.10;99.90;;;;;;4381428;32;20101;-59
2023/11/24 12:35:07;;;;;;;1.00;0.85;;;7.00;99.90;;;;;;4404545;32;20097;-59
2023/11/24 12:37:33;;;;;;;1.98;0.62;;;6.80;99.90;;;;;;4409384;32;20239;-61
2023/11/24 12:40:00;;;;;;;2.80;1.08;;;6.80;99.90;;;;;;4405151;32;20097;-59
2023/11/24 12:42:29;;;;;;;1.02;0.62;;;6.90;99.90;;;;;;4403345;32;20082;-60
2023/11/24 12:44:55;;;;;;;4.37;1.87;;;6.80;99.90;;;;;;4388854;32;21018;-60
2023/11/24 12:47:24;;;;;;;0.30;0.30;;;6.70;99.90;;;;;;4394961;32;20094;-57
2023/11/24 12:50:00;;;;;;;0.30;0.30;;;6.70;99.90;;;;;;4407755;32;20086;-58
2023/11/24 12:52:28;;;;;;;0.20;0.20;;;6.90;99.90;;;;;;4394856;32;20527;-61
2023/11/24 12:54:55;;;;;;;0.40;0.40;;;6.90;99.90;;;;;;4383906;32;20072;-61
2023/11/24 12:57:23;;;;;;;0.20;0.20;;;6.90;99.90;;;;;;4418151;32;20512;-59
2023/11/24 12:59:49;;;;;;;0.55;0.55;;;7.00;99.90;;;;;;4394949;32;21645;-59
2023/11/24 13:02:15;;;;;;;0.30;0.30;;;7.00;99.90;;;;;;4394098;32;20077;-60